This is the latest recevied weather packets stored in our database for station/object W0BJ. If no packets are shown the sender has not sent any weather packets the latest 10 day(s).
| Time | Temp. | Humidity | Pressure | Rain* | Wind** | Luminosity | Snow |
|---|---|---|---|---|---|---|---|
| 1777889545 | 16.67° C | 64% | 1010.6 hPa | 0 mm | - | - | - |
| 1777889298 | 16.67° C | 62% | 1010.4 hPa | 0 mm | - | - | - |
| 1777888944 | 16.67° C | 61% | 1010.6 hPa | 0 mm | - | - | - |
| 1777888397 | 16.67° C | 62% | 1010.5 hPa | 0 mm | - | - | - |
| 1777888343 | 16.67° C | 62% | 1010.4 hPa | 0 mm | - | - | - |
| 1777887745 | 16.67° C | 63% | 1010.3 hPa | 0 mm | - | - | - |
| 1777887499 | 16.67° C | 63% | 1010.2 hPa | 0 mm | - | - | - |
| 1777887144 | 16.67° C | 63% | 1010 hPa | 0 mm | - | - | - |
| 1777886598 | 16.67° C | 64% | 1009.9 hPa | 0 mm | - | - | - |
| 1777886544 | 16.11° C | 64% | 1009.9 hPa | 0 mm | - | - | - |
| 1777885945 | 16.11° C | 67% | 1010 hPa | 0 mm | - | - | - |
| 1777885699 | 15.56° C | 69% | 1009.8 hPa | 0 mm | - | - | - |
| 1777885344 | 15.56° C | 70% | 1009.8 hPa | 0 mm | - | - | - |
| 1777884797 | 15° C | 77% | 1010.1 hPa | 0 mm | - | - | - |
| 1777884743 | 14.44° C | 78% | 1009.9 hPa | 0 mm | - | - | - |
| 1777884144 | 14.44° C | 78% | 1010.1 hPa | 0 mm | - | - | - |
| 1777883898 | 15° C | 76% | 1010.5 hPa | 0 mm | - | - | - |
| 1777883544 | 15° C | 76% | 1010.6 hPa | 0 mm | - | - | - |
| 1777882997 | 15° C | 74% | 1010.5 hPa | 0 mm | - | - | - |
| 1777882943 | 15° C | 74% | 1010.5 hPa | 0 mm | - | - | - |
| 1777882344 | 15.56° C | 71% | 1010.6 hPa | 0 mm | - | - | - |
| 1777882105 | 15.56° C | 71% | 1010.7 hPa | 0 mm | - | - | - |
| 1777882098 | 15.56° C | 71% | 1010.7 hPa | 0 mm | - | - | - |
| 1777881744 | 16.11° C | 70% | 1010.7 hPa | 0 mm | - | - | - |
| 1777881199 | 16.11° C | 70% | 1010.6 hPa | 0 mm | - | - | - |
* Rain latest hour (hover to see other rain measurements)
** Current wind speed in m/s (hover to see current wind gust speed)